createdAt,value
2022-08-09T00:00:46.062Z,97157.19
2022-08-09T00:02:51.543Z,97155.25
2022-08-09T00:05:02.834Z,97143.41
2022-08-09T00:07:18.062Z,97151.81
2022-08-09T00:09:21.288Z,97136.94
2022-08-09T00:11:27.640Z,97149.94
2022-08-09T00:13:48.939Z,97144.25
2022-08-09T00:15:59.799Z,97150.78
2022-08-09T00:18:11.319Z,97160.28
2022-08-09T00:20:15.482Z,97147.63
2022-08-09T00:22:18.482Z,97151.97
2022-08-09T00:24:21.480Z,97152.22
2022-08-09T00:26:32.759Z,97150.06
2022-08-09T00:28:36.878Z,97144.13
2022-08-09T00:30:41.287Z,97146.34
2022-08-09T00:32:44.128Z,97146.28
2022-08-09T00:34:52.318Z,97141.94
2022-08-09T00:36:55.816Z,97143.56
2022-08-09T00:39:00.264Z,97148.16
2022-08-09T00:41:03.251Z,97149.28
2022-08-09T00:44:19.576Z,97154.97
2022-08-09T00:45:31.037Z,97150.66
2022-08-09T00:47:39.720Z,97153.88
2022-08-09T00:49:52.509Z,97153.88
2022-08-09T00:52:02.053Z,97152.28
2022-08-09T00:54:09.418Z,97159.59
2022-08-09T00:56:12.668Z,97165.00
2022-08-09T00:58:22.211Z,97158.78
2022-08-09T01:00:29.356Z,97154.50
2022-08-09T01:02:32.328Z,97156.41
2022-08-09T01:04:47.094Z,97159.09
2022-08-09T01:06:59.075Z,97157.78
2022-08-09T01:09:11.056Z,97148.03
2022-08-09T01:11:24.922Z,97155.66
2022-08-09T01:13:41.924Z,97159.97
2022-08-09T01:15:57.895Z,97164.28
2022-08-09T01:18:04.564Z,97161.06
2022-08-09T01:20:12.038Z,97165.97
2022-08-09T01:22:44.599Z,97165.16
2022-08-09T01:24:58.548Z,97170.59
2022-08-09T01:27:08.806Z,97166.56
2022-08-09T01:29:16.618Z,97168.25
2022-08-09T01:32:43.906Z,97171.75
2022-08-09T01:33:48.804Z,97163.88
2022-08-09T01:35:57.894Z,97166.34
2022-08-09T01:38:10.739Z,97171.75
2022-08-09T01:40:23.342Z,97161.72
2022-08-09T01:42:36.045Z,97151.97
2022-08-09T01:44:41.347Z,97151.44
2022-08-09T01:46:47.027Z,97159.03
2022-08-09T01:48:52.357Z,97159.31
2022-08-09T01:50:56.245Z,97157.13
2022-08-09T01:53:01.782Z,97157.66
2022-08-09T01:55:26.074Z,97160.91
2022-08-09T01:57:40.213Z,97169.84
2022-08-09T01:59:52.440Z,97166.84
2022-08-09T02:01:59.670Z,97171.19
2022-08-09T02:04:05.028Z,97172.00
2022-08-09T02:06:13.250Z,97173.59
2022-08-09T02:08:38.948Z,97172.50
2022-08-09T02:10:50.973Z,97176.03
2022-08-09T02:12:58.054Z,97178.44
2022-08-09T02:15:06.474Z,97175.44
2022-08-09T02:17:29.529Z,97173.84
2022-08-09T02:19:43.054Z,97178.97
2022-08-09T02:21:55.708Z,97176.53
2022-08-09T02:24:01.982Z,97177.63
2022-08-09T02:26:06.317Z,97185.25
2022-08-09T02:28:17.777Z,97193.94
2022-08-09T02:30:21.126Z,97191.25
2022-08-09T02:32:32.173Z,97191.25
2022-08-09T02:34:41.728Z,97198.28
2022-08-09T02:36:58.133Z,97195.84
2022-08-09T02:39:05.792Z,97188.25
2022-08-09T02:41:12.423Z,97192.34
2022-08-09T02:43:19.094Z,97199.97
2022-08-09T02:45:28.922Z,97193.50
2022-08-09T02:47:33.918Z,97197.84
2022-08-09T02:50:01.790Z,97191.59
2022-08-09T02:52:06.831Z,97197.53
2022-08-09T02:54:15.412Z,97193.22
2022-08-09T02:56:20.225Z,97198.91
2022-08-09T02:58:37.137Z,97197.56
2022-08-09T03:00:57.963Z,97192.13
2022-08-09T03:03:02.187Z,97191.88
2022-08-09T03:05:06.201Z,97197.56
2022-08-09T03:07:14.032Z,97190.00
2022-08-09T03:09:20.326Z,97187.88
2022-08-09T03:12:04.158Z,97192.19
2022-08-09T03:14:01.261Z,97189.19
2022-08-09T03:16:06.122Z,97182.97
2022-08-09T03:18:11.056Z,97186.19
2022-08-09T03:20:15.170Z,97185.16
2022-08-09T03:22:25.529Z,97188.97
2022-08-09T03:24:51.715Z,97190.06
2022-08-09T03:26:57.031Z,97190.91
2022-08-09T03:29:02.338Z,97188.22
2022-08-09T03:31:22.642Z,97189.59
2022-08-09T03:33:26.768Z,97192.31
2022-08-09T03:36:12.649Z,97183.38
2022-08-09T03:38:29.034Z,97186.88
2022-08-09T03:40:33.565Z,97184.19
2022-08-09T03:42:36.961Z,97187.97
2022-08-09T03:44:41.177Z,97188.47
2022-08-09T03:46:45.048Z,97187.97
2022-08-09T03:48:52.193Z,97192.84
2022-08-09T03:50:55.350Z,97188.53
2022-08-09T03:53:06.598Z,97193.97
2022-08-09T03:55:15.077Z,97190.72
2022-08-09T03:57:21.206Z,97192.38
2022-08-09T03:59:27.296Z,97197.81
2022-08-09T04:01:49.956Z,97193.78
2022-08-09T04:04:01.090Z,97195.69
2022-08-09T04:06:05.809Z,97194.09
2022-08-09T04:08:10.245Z,97200.59
2022-08-09T04:10:13.051Z,97201.66
2022-08-09T04:12:51.473Z,97203.03
2022-08-09T04:15:01.403Z,97201.94
2022-08-09T04:17:07.444Z,97201.69
2022-08-09T04:19:11.169Z,97210.09
2022-08-09T04:21:19.010Z,97208.75
2022-08-09T04:23:24.966Z,97200.34
2022-08-09T04:25:28.554Z,97201.16
2022-08-09T04:27:32.798Z,97208.72
2022-08-09T04:29:40.661Z,97201.16
2022-08-09T04:31:53.421Z,97200.34
2022-08-09T04:34:02.900Z,97200.06
2022-08-09T04:36:06.366Z,97204.97
2022-08-09T04:38:10.318Z,97209.03
2022-08-09T04:40:19.658Z,97200.91
2022-08-09T04:42:36.878Z,97202.25
2022-08-09T04:44:40.327Z,97206.34
2022-08-09T04:46:58.962Z,97205.81
2022-08-09T04:49:05.431Z,97220.41
2022-08-09T04:51:08.245Z,97221.22
2022-08-09T04:53:13.413Z,97222.03
2022-08-09T04:55:16.844Z,97213.63
2022-08-09T04:57:24.063Z,97222.31
2022-08-09T04:59:30.225Z,97222.59
2022-08-09T05:01:33.201Z,97234.22
2022-08-09T05:03:43.071Z,97234.22
2022-08-09T05:05:52.588Z,97229.91
2022-08-09T05:08:07.620Z,97230.97
2022-08-09T05:10:13.027Z,97231.25
2022-08-09T05:12:16.037Z,97233.94
2022-08-09T05:14:18.862Z,97240.97
2022-08-09T05:16:21.663Z,97245.03
2022-08-09T05:18:38.170Z,97248.28
2022-08-09T05:20:59.702Z,97246.09
2022-08-09T05:23:53.812Z,97245.28
2022-08-09T05:25:26.502Z,97247.72
2022-08-09T05:27:45.443Z,97241.22
2022-08-09T05:29:50.606Z,97254.19
2022-08-09T05:31:55.555Z,97250.44
2022-08-09T05:34:00.897Z,97256.66
2022-08-09T05:36:05.851Z,97261.25
2022-08-09T05:38:11.364Z,97253.13
2022-08-09T05:40:25.839Z,97247.97
2022-08-09T05:42:28.842Z,97256.09
2022-08-09T05:44:32.674Z,97255.00
2022-08-09T05:46:36.201Z,97253.38
2022-08-09T05:48:39.007Z,97257.69
2022-08-09T05:50:57.029Z,97255.25
2022-08-09T05:53:11.725Z,97256.31
2022-08-09T05:55:24.776Z,97257.91
2022-08-09T05:57:55.955Z,97266.03
2022-08-09T05:59:50.627Z,97254.88
2022-08-09T06:01:53.579Z,97264.06
2022-08-09T06:04:02.514Z,97259.94
2022-08-09T06:06:09.201Z,97262.59
2022-08-09T06:08:13.991Z,97259.84
2022-08-09T06:10:37.837Z,97266.28
2022-08-09T06:12:40.777Z,97268.38
2022-08-09T06:14:45.553Z,97262.41
2022-08-09T06:16:52.514Z,97268.38
2022-08-09T06:18:55.851Z,97265.66
2022-08-09T06:21:02.440Z,97267.28
2022-08-09T06:23:07.326Z,97274.31
2022-08-09T06:25:17.019Z,97273.72
2022-08-09T06:27:24.025Z,97278.06
2022-08-09T06:29:27.624Z,97277.81
2022-08-09T06:31:39.877Z,97286.16
2022-08-09T06:33:53.914Z,97275.84
2022-08-09T06:35:58.385Z,97281.78
2022-08-09T06:38:05.696Z,97288.84
2022-08-09T06:40:22.013Z,97294.28
2022-08-09T06:42:33.560Z,97288.31
2022-08-09T06:44:36.767Z,97296.44
2022-08-09T06:46:41.160Z,97300.75
2022-08-09T06:48:44.556Z,97300.25
2022-08-09T06:50:48.470Z,97296.72
2022-08-09T06:52:51.772Z,97293.72
2022-08-09T06:54:56.065Z,97292.91
2022-08-09T06:56:59.243Z,97296.19
2022-08-09T07:00:51.634Z,97297.78
2022-08-09T07:01:51.976Z,97294.00
2022-08-09T07:03:53.173Z,97291.81
2022-08-09T07:06:04.757Z,97290.75
2022-08-09T07:08:08.411Z,97294.84
2022-08-09T07:10:22.326Z,97295.91
2022-08-09T07:12:38.532Z,97301.59
2022-08-09T07:14:45.677Z,97295.34
2022-08-09T07:16:58.087Z,97300.75
2022-08-09T07:19:01.549Z,97309.72
2022-08-09T07:21:07.649Z,97309.19
2022-08-09T07:23:18.333Z,97310.28
2022-08-09T07:25:22.363Z,97312.19
2022-08-09T07:27:34.072Z,97305.13
2022-08-09T07:29:46.714Z,97307.84
2022-08-09T07:31:49.772Z,97309.47
2022-08-09T07:33:55.902Z,97306.53
2022-08-09T07:35:59.093Z,97305.94
2022-08-09T07:38:04.216Z,97310.56
2022-08-09T07:40:07.981Z,97305.13
2022-08-09T07:42:11.438Z,97301.06
2022-08-09T07:44:14.731Z,97310.81
2022-08-09T07:46:19.811Z,97301.34
2022-08-09T07:48:30.010Z,97300.81
2022-08-09T07:50:36.604Z,97297.84
2022-08-09T07:52:42.996Z,97306.25
2022-08-09T07:54:51.571Z,97297.84
2022-08-09T07:56:56.294Z,97303.00
2022-08-09T07:59:01.864Z,97314.09
2022-08-09T08:01:06.673Z,97311.66
2022-08-09T08:03:15.647Z,97312.47
2022-08-09T08:05:20.927Z,97309.53
2022-08-09T08:08:44.236Z,97307.63
2022-08-09T08:09:53.642Z,97303.81
2022-08-09T08:12:24.494Z,97311.13
2022-08-09T08:14:31.185Z,97303.53
2022-08-09T08:16:34.539Z,97307.03
2022-08-09T08:18:39.136Z,97308.13
2022-08-09T08:20:46.420Z,97313.28
2022-08-09T08:22:51.628Z,97306.75
2022-08-09T08:24:58.615Z,97311.38
2022-08-09T08:27:02.191Z,97310.56
2022-08-09T08:29:05.178Z,97304.34
2022-08-09T08:31:14.012Z,97307.31
2022-08-09T08:33:24.038Z,97316.25
2022-08-09T08:35:52.935Z,97313.84
2022-08-09T08:38:01.889Z,97306.81
2022-08-09T08:40:30.852Z,97311.13
2022-08-09T08:42:35.583Z,97307.31
2022-08-09T08:44:43.681Z,97306.22
2022-08-09T08:46:59.534Z,97310.53
2022-08-09T08:49:07.520Z,97307.28
2022-08-09T08:51:18.243Z,97305.63
2022-08-09T08:53:22.351Z,97307.53
2022-08-09T08:55:26.567Z,97311.91
2022-08-09T08:57:29.758Z,97307.28
2022-08-09T08:59:46.828Z,97308.38
2022-08-09T09:01:56.635Z,97309.44
2022-08-09T09:04:01.728Z,97308.38
2022-08-09T09:06:07.334Z,97312.44
2022-08-09T09:08:30.893Z,97312.13
2022-08-09T09:10:37.263Z,97307.53
2022-08-09T09:12:42.498Z,97311.03
2022-08-09T09:14:49.820Z,97314.28
2022-08-09T09:16:56.346Z,97318.59
2022-08-09T09:19:37.275Z,97317.22
2022-08-09T09:21:26.283Z,97304.75
2022-08-09T09:23:42.316Z,97306.66
2022-08-09T09:26:01.002Z,97307.69
2022-08-09T09:28:10.939Z,97309.88
2022-08-09T09:30:32.973Z,97306.59
2022-08-09T09:32:40.317Z,97296.84
2022-08-09T09:34:45.143Z,97307.09
2022-08-09T09:36:54.017Z,97297.38
2022-08-09T09:38:59.340Z,97301.44
2022-08-09T09:41:03.143Z,97303.03
2022-08-09T09:43:07.579Z,97308.19
2022-08-09T09:45:25.624Z,97300.56
2022-08-09T09:47:32.737Z,97309.22
2022-08-09T09:50:13.218Z,97297.78
2022-08-09T09:52:05.673Z,97302.69
2022-08-09T09:54:22.702Z,97300.47
2022-08-09T09:56:33.851Z,97303.72
2022-08-09T09:58:47.155Z,97299.91
2022-08-09T10:00:58.429Z,97302.31
2022-08-09T10:03:11.434Z,97290.66
2022-08-09T10:05:15.326Z,97296.63
2022-08-09T10:07:31.575Z,97304.19
2022-08-09T10:09:54.521Z,97296.88
2022-08-09T10:12:14.327Z,97296.06
2022-08-09T10:14:33.691Z,97303.09
2022-08-09T10:16:57.101Z,97295.50
2022-08-09T10:19:04.345Z,97291.97
2022-08-09T10:21:11.976Z,97299.00
2022-08-09T10:23:21.142Z,97291.69
2022-08-09T10:25:34.557Z,97296.22
2022-08-09T10:27:56.730Z,97300.31
2022-08-09T10:30:49.466Z,97294.88
2022-08-09T10:32:40.389Z,97291.88
2022-08-09T10:34:47.189Z,97289.69
2022-08-09T10:36:56.769Z,97289.41
2022-08-09T10:39:00.617Z,97281.78
2022-08-09T10:41:05.890Z,97284.78
2022-08-09T10:43:13.011Z,97280.97
2022-08-09T10:45:22.380Z,97291.56
2022-08-09T10:48:14.379Z,97277.97
2022-08-09T10:50:09.867Z,97282.06
2022-08-09T10:52:30.681Z,97283.09
2022-08-09T10:54:33.513Z,97281.69
2022-08-09T10:56:39.860Z,97280.31
2022-08-09T10:58:45.036Z,97280.31
2022-08-09T11:01:10.927Z,97282.47
2022-08-09T11:03:51.308Z,97274.03
2022-08-09T11:06:24.595Z,97272.34
2022-08-09T11:08:48.005Z,97271.25
2022-08-09T11:11:01.013Z,97267.44
2022-08-09T11:13:49.145Z,97267.44
2022-08-09T11:15:50.719Z,97269.84
2022-08-09T11:18:04.987Z,97281.53
2022-08-09T11:20:22.535Z,97270.69
2022-08-09T11:23:10.355Z,97265.47
2022-08-09T11:25:14.825Z,97260.34
2022-08-09T11:28:04.929Z,97266.28
2022-08-09T11:30:04.676Z,97259.47
2022-08-09T11:32:13.706Z,97261.06
2022-08-09T11:34:44.124Z,97264.59
2022-08-09T11:36:52.190Z,97256.97
2022-08-09T11:39:04.892Z,97253.97
2022-08-09T11:41:38.250Z,97258.31
2022-08-09T11:43:49.611Z,97249.38
2022-08-09T11:45:56.245Z,97245.84
2022-08-09T11:48:11.121Z,97256.41
2022-08-09T11:50:53.735Z,97250.97
2022-08-09T11:53:59.451Z,97247.16
2022-08-09T11:56:02.914Z,97237.91
2022-08-09T11:58:32.523Z,97243.84
2022-08-09T12:00:37.118Z,97240.84
2022-08-09T12:02:44.842Z,97238.94
2022-08-09T12:04:54.631Z,97238.34
2022-08-09T12:07:08.199Z,97238.09
2022-08-09T12:11:35.750Z,97227.44
2022-08-09T12:14:10.258Z,97227.94
2022-08-09T12:16:30.702Z,97221.41
2022-08-09T12:18:45.594Z,97230.88
2022-08-09T12:21:00.348Z,97226.03
2022-08-09T12:23:05.530Z,97224.09
2022-08-09T12:25:15.196Z,97225.72
2022-08-09T12:28:58.591Z,97224.91
2022-08-09T12:29:58.577Z,97221.91
2022-08-09T12:32:08.090Z,97217.28
2022-08-09T12:34:11.488Z,97220.00
2022-08-09T12:36:27.319Z,97219.19
2022-08-09T12:38:38.094Z,97218.09
2022-08-09T12:40:46.629Z,97214.25
2022-08-09T12:42:57.467Z,97220.19
2022-08-09T12:45:02.677Z,97212.06
2022-08-09T12:47:26.328Z,97207.44
2022-08-09T12:49:29.599Z,97209.03
2022-08-09T12:52:01.709Z,97204.41
2022-08-09T12:54:00.112Z,97204.41
2022-08-09T12:56:39.509Z,97201.19
2022-08-09T12:58:38.813Z,97199.00
2022-08-09T13:00:47.512Z,97195.16
2022-08-09T13:02:53.430Z,97189.72
2022-08-09T13:05:04.243Z,97188.66
2022-08-09T13:07:16.697Z,97191.88
2022-08-09T13:09:26.419Z,97190.78
2022-08-09T13:11:35.238Z,97184.53
2022-08-09T13:14:43.945Z,97188.06
2022-08-09T13:16:11.985Z,97180.72
2022-08-09T13:18:17.506Z,97178.50
2022-08-09T13:20:37.678Z,97178.50
2022-08-09T13:23:04.800Z,97181.72
2022-08-09T13:25:19.666Z,97179.53
2022-08-09T13:27:39.605Z,97177.63
2022-08-09T13:30:49.078Z,97181.97
2022-08-09T13:32:27.554Z,97181.38
2022-08-09T13:34:33.756Z,97178.97
2022-08-09T13:36:43.184Z,97175.44
2022-08-09T13:38:56.151Z,97183.59
2022-08-09T13:41:50.894Z,97172.41
2022-08-09T13:43:35.604Z,97169.69
2022-08-09T13:46:42.379Z,97167.50
2022-08-09T13:48:10.939Z,97166.69
2022-08-09T13:50:30.131Z,97159.63
2022-08-09T13:52:35.051Z,97163.97
2022-08-09T13:54:43.025Z,97156.31
2022-08-09T13:57:01.713Z,97155.22
2022-08-09T13:59:09.672Z,97158.44
2022-08-09T14:02:01.330Z,97159.25
2022-08-09T14:04:03.576Z,97169.00
2022-08-09T14:06:02.616Z,97153.25
2022-08-09T14:08:07.032Z,97157.88
2022-08-09T14:10:17.307Z,97147.50
2022-08-09T14:12:38.735Z,97143.69
2022-08-09T14:14:44.268Z,97144.28
2022-08-09T14:16:58.730Z,97150.22
2022-08-09T14:19:01.899Z,97146.91
2022-08-09T14:21:05.890Z,97142.78
2022-08-09T14:23:09.653Z,97145.19
2022-08-09T14:25:24.320Z,97138.16
2022-08-09T14:27:37.087Z,97141.97
2022-08-09T14:30:34.646Z,97138.16
2022-08-09T14:32:28.773Z,97149.09
2022-08-09T14:34:34.294Z,97141.38
2022-08-09T14:36:42.956Z,97140.25
2022-08-09T14:38:46.620Z,97148.72
2022-08-09T14:41:01.768Z,97141.38
2022-08-09T14:43:18.900Z,97143.22
2022-08-09T14:47:00.986Z,97137.66
2022-08-09T14:47:57.524Z,97141.19
2022-08-09T14:50:03.076Z,97134.28
2022-08-09T14:52:06.435Z,97144.34
2022-08-09T14:54:10.339Z,97136.38
2022-08-09T14:56:13.423Z,97138.34
2022-08-09T14:58:16.412Z,97130.06
2022-08-09T15:00:20.123Z,97151.03
2022-08-09T15:02:23.439Z,97133.28
2022-08-09T15:04:28.159Z,97140.56
2022-08-09T15:06:32.236Z,97133.06
2022-08-09T15:08:35.336Z,97127.09
2022-08-09T15:10:38.741Z,97129.09
2022-08-09T15:12:44.999Z,97127.19
2022-08-09T15:14:48.168Z,97129.31
2022-08-09T15:16:53.164Z,97124.69
2022-08-09T15:18:56.230Z,97132.00
2022-08-09T15:21:55.136Z,97127.97
2022-08-09T15:24:01.091Z,97125.16
2022-08-09T15:25:50.048Z,97126.19
2022-08-09T15:28:00.500Z,97118.13
2022-08-09T15:30:58.206Z,97113.69
2022-08-09T15:32:29.503Z,97121.63
2022-08-09T15:34:35.449Z,97114.44
2022-08-09T15:36:47.926Z,97117.97
2022-08-09T15:38:51.386Z,97115.81
2022-08-09T15:40:54.340Z,97119.81
2022-08-09T15:42:57.262Z,97107.53
2022-08-09T15:45:03.317Z,97095.19
2022-08-09T15:47:07.507Z,97108.13
2022-08-09T15:49:22.860Z,97094.47
2022-08-09T15:51:44.647Z,97095.63
2022-08-09T15:54:05.479Z,97091.09
2022-08-09T15:56:28.761Z,97099.16
2022-08-09T15:58:33.777Z,97093.09
2022-08-09T16:00:39.939Z,97094.41
2022-08-09T16:02:53.555Z,97088.63
2022-08-09T16:04:57.196Z,97088.13
2022-08-09T16:07:01.917Z,97077.03
2022-08-09T16:09:06.991Z,97083.50
2022-08-09T16:11:09.977Z,97086.22
2022-08-09T16:13:18.639Z,97084.84
2022-08-09T16:16:04.384Z,97085.47
2022-08-09T16:17:48.369Z,97077.16
2022-08-09T16:20:04.445Z,97079.88
2022-08-09T16:22:15.863Z,97073.09
2022-08-09T16:24:32.975Z,97073.75
2022-08-09T16:26:37.926Z,97077.91
2022-08-09T16:28:41.050Z,97072.09
2022-08-09T16:30:44.993Z,97078.22
2022-08-09T16:33:11.703Z,97082.38
2022-08-09T16:35:53.305Z,97087.31
2022-08-09T16:37:55.091Z,97084.59
2022-08-09T16:40:05.271Z,97080.06
2022-08-09T16:42:08.996Z,97072.69
2022-08-09T16:44:18.990Z,97072.09
2022-08-09T16:46:24.619Z,97067.94
2022-08-09T16:48:42.731Z,97069.25
2022-08-09T16:50:59.446Z,97057.53
2022-08-09T16:53:11.880Z,97059.75
2022-08-09T16:55:16.631Z,97069.25
2022-08-09T16:57:21.559Z,97072.56
2022-08-09T16:59:24.425Z,97063.28
2022-08-09T17:01:27.944Z,97062.69
2022-08-09T17:03:37.026Z,97060.91
2022-08-09T17:06:06.887Z,97060.91
2022-08-09T17:08:46.509Z,97067.69
2022-08-09T17:10:27.151Z,97059.19
2022-08-09T17:12:30.502Z,97057.09
2022-08-09T17:14:34.570Z,97055.47
2022-08-09T17:16:38.558Z,97057.41
2022-08-09T17:18:41.440Z,97056.09
2022-08-09T17:20:52.927Z,97059.31
2022-08-09T17:22:56.103Z,97061.38
2022-08-09T17:25:03.801Z,97061.47
2022-08-09T17:27:15.547Z,97061.78
2022-08-09T17:29:20.123Z,97056.97
2022-08-09T17:31:23.668Z,97058.56
2022-08-09T17:33:26.567Z,97055.03
2022-08-09T17:35:40.905Z,97059.22
2022-08-09T17:38:14.380Z,97058.09
2022-08-09T17:40:16.969Z,97071.41
2022-08-09T17:42:41.767Z,97063.41
2022-08-09T17:44:49.050Z,97065.84
2022-08-09T17:46:55.765Z,97075.91
2022-08-09T17:48:59.227Z,97066.13
2022-08-09T17:51:09.693Z,97073.50
2022-08-09T17:53:22.406Z,97071.56
2022-08-09T17:55:47.389Z,97066.91
2022-08-09T17:58:03.626Z,97066.44
2022-08-09T18:00:09.760Z,97064.81
2022-08-09T18:02:22.930Z,97076.03
2022-08-09T18:04:31.946Z,97075.56
2022-08-09T18:06:35.613Z,97076.69
2022-08-09T18:08:40.689Z,97074.59
2022-08-09T18:10:46.225Z,97071.34
2022-08-09T18:13:42.910Z,97073.56
2022-08-09T18:15:50.381Z,97073.41
2022-08-09T18:18:03.768Z,97069.38
2022-08-09T18:20:56.590Z,97069.97
2022-08-09T18:22:33.825Z,97073.34
2022-08-09T18:24:37.367Z,97078.59
2022-08-09T18:26:46.902Z,97067.22
2022-08-09T18:30:37.728Z,97072.47
2022-08-09T18:31:14.995Z,97086.38
2022-08-09T18:33:28.393Z,97081.06
2022-08-09T18:35:48.167Z,97069.66
2022-08-09T18:37:54.844Z,97089.03
2022-08-09T18:39:57.983Z,97082.59
2022-08-09T18:42:05.429Z,97082.13
2022-08-09T18:44:13.843Z,97085.44
2022-08-09T18:46:47.908Z,97094.69
2022-08-09T18:48:42.545Z,97087.13
2022-08-09T18:50:45.678Z,97084.72
2022-08-09T18:52:50.987Z,97095.13
2022-08-09T18:54:53.947Z,97093.03
2022-08-09T18:56:56.761Z,97085.44
2022-08-09T18:59:09.518Z,97093.44
2022-08-09T19:01:13.688Z,97091.34
2022-08-09T19:03:16.559Z,97105.25
2022-08-09T19:06:01.886Z,97100.09
2022-08-09T19:07:59.394Z,97095.75
2022-08-09T19:10:16.571Z,97102.63
2022-08-09T19:12:21.222Z,97104.84
2022-08-09T19:14:29.505Z,97099.72
2022-08-09T19:16:36.626Z,97103.88
2022-08-09T19:18:45.296Z,97100.63
2022-08-09T19:20:56.718Z,97103.66
2022-08-09T19:23:01.246Z,97102.34
2022-08-09T19:25:11.557Z,97095.91
2022-08-09T19:27:29.080Z,97104.38
2022-08-09T19:29:38.362Z,97108.50
2022-08-09T19:31:59.914Z,97106.09
2022-08-09T19:34:03.151Z,97101.25
2022-08-09T19:36:11.788Z,97108.91
2022-08-09T19:38:16.311Z,97099.47
2022-08-09T19:40:19.648Z,97109.78
2022-08-09T19:42:23.973Z,97097.91
2022-08-09T19:44:31.229Z,97110.22
2022-08-09T19:46:35.741Z,97104.84
2022-08-09T19:49:00.842Z,97100.81
2022-08-09T19:51:18.037Z,97097.59
2022-08-09T19:53:21.084Z,97099.59
2022-08-09T19:55:25.803Z,97102.63
2022-08-09T19:57:33.829Z,97104.06
2022-08-09T19:59:57.214Z,97101.94
2022-08-09T20:02:07.415Z,97091.38
2022-08-09T20:04:36.556Z,97107.47
2022-08-09T20:06:40.027Z,97098.81
2022-08-09T20:08:45.488Z,97099.41
2022-08-09T20:10:48.397Z,97091.88
2022-08-09T20:12:52.086Z,97101.41
2022-08-09T20:14:55.011Z,97095.16
2022-08-09T20:16:58.002Z,97093.84
2022-08-09T20:19:42.808Z,97093.06
2022-08-09T20:21:40.857Z,97081.19
2022-08-09T20:23:48.099Z,97094.28
2022-08-09T20:25:55.279Z,97093.75
2022-08-09T20:27:58.212Z,97103.50
2022-08-09T20:30:03.477Z,97101.38
2022-08-09T20:32:30.588Z,97097.06
2022-08-09T20:34:30.439Z,97107.41
2022-08-09T20:36:34.606Z,97088.69
2022-08-09T20:39:18.909Z,97098.75
2022-08-09T20:41:02.223Z,97107.50
2022-08-09T20:43:18.250Z,97105.66
2022-08-09T20:46:01.974Z,97100.84
2022-08-09T20:47:50.257Z,97102.53
2022-08-09T20:49:53.068Z,97105.53
